Latest Weather Observations for Evans Head

IDN60801

Issued at 7:35 am EST Saturday 20 September 2014 (issued every 30 minutes, with the page automatically refreshed every 10 minutes)

About weather observations | Map of weather stations | Latest weather observations for NSW | Other Formats
Station Details ID: 058212 Name: EVANS HEAD RAAF BOMBING RANGE AWS Lat: -29.18 Lon: 153.40 Height: 62.5 m
Data from the previous 72 hours. | See also: Recent months at Evans Head
Date/Time
EST
Temp
°C
App
Temp
°C
Dew
Point
Rel
Hum
%
Delta-T
°C
Wind Press
QNH
hPa
Press
MSL
hPa
Rain
since 9 am
mm
Dir
 
Spd
km/h
Gust
km/h
Spd
kts
Gust
kts
20/07:30am 17.8 16.2 11.6 67 3.4 SE 11 17 6 9 1022.6 1022.5 0.0
20/07:00am 16.5 14.2 10.6 68 3.1 SSE 13 19 7 10 1022.2 1022.1 0.0
20/06:30am 16.2 13.2 10.7 70 2.9 SSE 17 24 9 13 1021.6 1021.5 0.0
20/06:00am 15.4 12.0 10.6 73 2.5 SE 19 24 10 13 1021.2 1021.1 0.0
20/05:30am 15.3 11.9 11.3 77 2.1 SE 20 28 11 15 1020.8 1020.6 0.0
20/05:00am 15.4 11.6 11.2 76 2.2 SE 22 33 12 18 1020.4 1020.2 0.0
20/04:30am 15.6 10.8 11.6 77 2.2 SSE 28 41 15 22 1020.1 1019.9 0.0
20/04:00am 15.8 11.3 12.7 82 1.7 SE 28 39 15 21 1019.8 1019.6 0.0
20/03:30am 15.8 13.3 13.6 87 1.2 SSE 19 26 10 14 1019.8 1019.6 0.0
20/03:00am 15.7 13.1 13.2 85 1.4 S 19 28 10 15 1019.6 1019.4 0.0
20/02:30am 15.5 12.8 13.5 88 1.1 SSE 20 30 11 16 1019.7 1019.5 0.0
20/02:00am 15.2 12.7 13.6 90 0.9 SSE 19 28 10 15 1019.9 1019.7 0.0
20/01:30am 15.2 13.5 14.6 96 0.3 SSE 17 24 9 13 1019.8 1019.6 0.0
20/01:00am 15.1 12.6 14.0 93 0.6 SSE 20 28 11 15 1019.8 1019.6 0.0
20/12:30am 15.0 12.2 13.2 89 1.0 S 20 32 11 17 1019.8 1019.6 0.0
20/12:00am 14.6 11.8 12.5 87 1.1 SSW 19 28 10 15 1019.9 1019.7 0.0
 
Date/Time
EST
Temp
°C
App
Temp
°C
Dew
Point
Rel
Hum
%
Delta-T
°C
Wind Press
QNH
hPa
Press
MSL
hPa
Rain
since 9 am
mm
Dir
 
Spd
km/h
Gust
km/h
Spd
kts
Gust
kts
19/11:30pm 15.5 16.1 13.2 86 1.3 SSW 2 15 1 8 1019.6 1019.4 0.0
19/11:00pm 15.1 15.3 13.1 88 1.1 NE 4 7 2 4 1019.2 1019.0 0.0
19/10:30pm 15.5 14.2 12.6 83 1.6 N 11 15 6 8 1019.2 1019.0 0.0
19/10:00pm 16.0 14.7 12.4 79 2.0 N 11 17 6 9 1019.4 1019.2 0.0
19/09:30pm 16.7 16.3 13.0 79 2.1 NNW 7 13 4 7 1019.6 1019.4 0.0
19/09:00pm 16.7 15.9 12.8 78 2.2 NNE 9 13 5 7 1019.7 1019.5 0.0
19/08:30pm 17.3 16.2 13.0 76 2.4 NE 11 17 6 9 1019.7 1019.5 0.0
19/08:00pm 16.9 15.2 12.4 75 2.5 NNE 13 20 7 11 1019.7 1019.5 0.0
19/07:30pm 17.1 15.3 12.2 73 2.7 NE 13 22 7 12 1019.3 1019.1 0.0
19/07:00pm 17.2 15.4 12.1 72 2.8 NE 13 19 7 10 1019.0 1018.8 0.0
19/06:30pm 17.2 15.5 12.3 73 2.7 NE 13 20 7 11 1018.4 1018.2 0.0
19/06:00pm 17.3 15.5 12.0 71 2.9 NE 13 20 7 11 1018.1 1017.9 0.0
19/05:30pm 17.9 15.7 12.1 69 3.2 ENE 15 26 8 14 1017.9 1017.7 0.0
19/05:00pm 18.4 15.7 11.7 65 3.7 E 17 26 9 14 1017.7 1017.5 0.0
19/04:30pm 19.2 16.4 11.5 61 4.2 ENE 17 24 9 13 1017.5 1017.3 0.0
19/04:00pm 19.6 17.0 12.1 62 4.2 E 17 28 9 15 1017.4 1017.2 0.0
19/03:30pm 19.7 16.5 12.0 61 4.3 E 20 28 11 15 1017.1 1016.9 0.0
19/03:00pm 20.3 17.1 12.0 59 4.6 E 20 28 11 15 1017.2 1017.0 0.0
19/02:30pm 20.1 16.7 11.3 57 4.9 E 20 30 11 16 1017.3 1017.1 0.0
19/02:00pm 20.5 17.3 12.0 58 4.7 ESE 20 28 11 15 1018.0 1017.8 0.0
19/01:30pm 20.6 17.5 11.5 56 5.0 ESE 19 26 10 14 1018.3 1018.1 0.0
19/01:00pm 21.0 18.1 12.2 57 4.9 ESE 19 24 10 13 1018.8 1018.6 0.0
19/12:30pm 20.9 18.1 11.5 55 5.2 SE 17 24 9 13 1019.5 1019.3 0.0
19/12:00pm 21.2 18.7 12.3 57 5.0 SE 17 22 9 12 1019.8 1019.6 0.0
19/11:30am 21.1 18.8 13.0 60 4.6 SE 17 22 9 12 1020.1 1019.9 0.0
19/11:00am 21.2 18.9 12.9 59 4.7 SSE 17 24 9 13 1020.7 1020.5 0.0
19/10:30am 20.8 18.4 12.5 59 4.7 SSE 17 22 9 12 1021.0 1020.8 0.0
19/10:00am 20.8 18.5 11.7 56 5.1 S 15 20 8 11 1021.2 1021.1 0.0
19/09:30am 19.3 17.9 10.8 58 4.6 SSW 9 15 5 8 1021.7 1021.6 0.0
19/09:00am 19.0 18.1 10.8 59 4.4 SSW 6 11 3 6 1022.0 1021.9 0.0
19/08:30am 17.6 16.3 9.8 60 4.1 W 7 11 4 6 1021.9 1021.8 0.0
19/08:00am 16.3 14.6 9.9 66 3.4 WSW 9 13 5 7 1021.8 1021.7 0.0
19/07:30am 15.2 13.1 8.4 64 3.4 W 9 15 5 8 1021.6 1021.5 0.0
19/07:00am 13.9 11.3 7.9 67 3.0 WSW 11 15 6 8 1021.2 1021.1 0.0
19/06:30am 12.9 9.8 7.4 69 2.7 W 13 15 7 8 1020.9 1020.7 0.0
19/06:00am 12.0 8.9 7.1 72 2.4 W 13 17 7 9 1020.7 1020.5 0.0
19/05:30am 12.2 9.1 7.1 71 2.5 W 13 17 7 9 1020.4 1020.2 0.0
19/05:00am 12.2 9.1 7.1 71 2.5 W 13 17 7 9 1020.1 1019.9 0.0
19/04:30am 12.0 8.5 7.1 72 2.4 W 15 17 8 9 1020.0 1019.8 0.0
19/04:00am 12.3 8.8 7.2 71 2.5 W 15 17 8 9 1019.7 1019.5 0.0
19/03:30am 12.5 9.4 7.2 70 2.6 WSW 13 17 7 9 1019.4 1019.2 0.0
19/03:00am 12.8 9.7 7.3 69 2.7 WSW 13 15 7 8 1019.5 1019.3 0.0
19/02:30am 13.0 10.0 7.5 69 2.7 WSW 13 15 7 8 1019.7 1019.5 0.0
19/02:00am 13.3 10.2 7.3 67 2.9 WSW 13 15 7 8 1019.8 1019.6 0.0
19/01:30am 13.7 10.6 7.2 65 3.2 WSW 13 13 7 7 1020.2 1020.0 0.0
19/01:00am 13.7 10.6 7.2 65 3.2 WSW 13 13 7 7 1020.3 1020.1 0.0
19/12:30am 13.9 10.8 7.2 64 3.3 W 13 15 7 8 1020.3 1020.1 0.0
19/12:00am 14.1 11.0 7.4 64 3.3 W 13 15 7 8 1020.6 1020.4 0.0
 
Date/Time
EST
Temp
°C
App
Temp
°C
Dew
Point
Rel
Hum
%
Delta-T
°C
Wind Press
QNH
hPa
Press
MSL
hPa
Rain
since 9 am
mm
Dir
 
Spd
km/h
Gust
km/h
Spd
kts
Gust
kts
18/11:30pm 14.5 11.8 7.5 63 3.5 W 11 15 6 8 1020.7 1020.5 0.0
18/11:00pm 14.3 12.4 7.6 64 3.3 W 7 9 4 5 1020.6 1020.4 0.0
18/10:30pm 14.2 13.1 7.0 62 3.5 S 2 9 1 5 1020.5 1020.3 0.0
18/10:00pm 15.4 12.9 8.2 62 3.6 SE 11 15 6 8 1020.5 1020.3 0.0
18/09:30pm 15.7 12.8 8.2 61 3.8 SE 13 15 7 8 1020.5 1020.3 0.0
18/09:00pm 16.0 13.1 8.0 59 4.0 SE 13 15 7 8 1020.3 1020.1 0.0
18/08:30pm 16.1 13.2 8.1 59 4.1 SE 13 19 7 10 1020.0 1019.8 0.0
18/08:00pm 16.4 13.4 7.6 56 4.4 SE 13 19 7 10 1019.4 1019.2 0.0
18/07:30pm 16.7 13.6 7.4 54 4.7 SE 13 19 7 10 1018.8 1018.6 0.0
18/07:00pm 16.9 13.5 7.8 55 4.6 SE 15 19 8 10 1018.2 1018.0 0.0
18/06:30pm 17.0 13.0 6.8 51 5.1 ESE 17 24 9 13 1017.6 1017.4 0.0
18/06:00pm 17.3 13.0 6.8 50 5.2 ESE 19 28 10 15 1017.3 1017.1 0.0
18/05:30pm 17.2 13.4 7.5 53 4.9 ESE 17 28 9 15 1016.8 1016.6 0.0
18/05:00pm 17.6 13.7 7.1 50 5.3 ESE 17 24 9 13 1016.5 1016.3 0.0
18/04:30pm 18.3 14.5 7.4 49 5.5 ESE 17 24 9 13 1016.1 1015.9 0.0
18/04:00pm 18.8 14.3 6.9 46 6.0 ESE 20 26 11 14 1015.9 1015.7 0.0
18/03:30pm 19.4 15.0 7.5 46 6.1 ESE 20 28 11 15 1015.8 1015.6 0.0
18/03:00pm 19.8 15.3 6.2 41 6.8 ESE 19 26 10 14 1015.8 1015.6 0.0
18/02:30pm 20.2 15.3 5.1 37 7.4 ESE 20 28 11 15 1015.9 1015.7 0.0
18/02:00pm 20.3 15.4 5.1 37 7.5 SE 20 28 11 15 1015.9 1015.7 0.0
18/01:30pm 21.3 16.8 6.0 37 7.7 SSE 19 26 10 14 1016.3 1016.1 0.0
18/01:00pm 21.5 16.6 5.0 34 8.1 SSE 20 26 11 14 1016.5 1016.3 0.0
18/12:30pm 21.9 16.8 4.0 31 8.7 SSE 20 28 11 15 1016.9 1016.7 0.0
18/12:00pm 21.9 16.2 3.1 29 9.0 S 22 30 12 16 1017.4 1017.2 0.0
18/11:30am 22.2 16.7 3.8 30 8.9 S 22 30 12 16 1017.7 1017.5 0.0
18/11:00am 21.8 16.5 3.0 29 8.9 S 20 30 11 16 1018.2 1018.0 0.0
18/10:30am 20.8 14.8 1.1 27 9.0 SW 22 35 12 19 1018.5 1018.3 0.0
18/10:00am 20.6 15.2 2.4 30 8.5 SW 20 32 11 17 1018.8 1018.6 0.0
18/09:30am 20.3 15.0 3.1 32 8.1 SW 20 35 11 19 1018.9 1018.7 0.0
18/09:00am 19.7 14.3 1.2 29 8.3 WSW 19 37 10 20 1019.0 1018.8 0.0
18/08:30am 19.4 14.9 4.3 37 7.3 WSW 17 24 9 13 1019.0 1018.8 0.0
18/08:00am 18.0 13.6 4.6 41 6.4 WSW 17 28 9 15 1019.0 1018.8 0.0
18/07:30am 17.1 14.1 4.1 42 6.1 WSW 9 17 5 9 1018.9 1018.7 0.0
18/07:00am 15.9 11.6 3.4 43 5.7 WSW 15 20 8 11 1018.4 1018.2 0.0
18/06:30am 15.0 10.6 2.5 43 5.6 WSW 15 20 8 11 1017.8 1017.6 0.0
18/06:00am 14.8 10.3 2.0 42 5.6 W 15 20 8 11 1017.4 1017.2 0.0
18/05:30am 14.6 10.5 2.2 43 5.5 WSW 13 19 7 10 1017.1 1016.9 0.0
18/05:00am 14.7 10.2 2.3 43 5.5 WSW 15 19 8 10 1016.7 1016.5 0.0
18/04:30am 15.1 10.6 2.3 42 5.7 WSW 15 20 8 11 1016.3 1016.1 0.0
18/04:00am 15.2 10.4 2.7 43 5.6 WSW 17 22 9 12 1016.0 1015.8 0.0
18/03:30am 15.0 10.4 3.5 46 5.2 WSW 17 24 9 13 1015.8 1015.6 0.0
18/03:00am 15.2 10.1 4.0 47 5.2 WSW 20 26 11 14 1015.7 1015.5 0.0
18/02:30am 15.6 10.3 4.9 49 5.1 WSW 22 28 12 15 1015.6 1015.4 0.0
18/02:00am 15.6 10.9 5.2 50 4.9 WSW 19 24 10 13 1015.4 1015.2 0.0
18/01:30am 15.6 11.0 5.5 51 4.8 WSW 19 22 10 12 1015.6 1015.4 0.0
18/01:00am 15.8 12.0 3.9 45 5.5 W 13 19 7 10 1015.7 1015.5 0.0
18/12:30am 16.4 12.1 3.5 42 6.0 SW 15 19 8 10 1015.5 1015.3 0.0
18/12:00am 16.3 12.3 2.7 40 6.2 WSW 13 20 7 11 1015.4 1015.2 0.0
 
Date/Time
EST
Temp
°C
App
Temp
°C
Dew
Point
Rel
Hum
%
Delta-T
°C
Wind Press
QNH
hPa
Press
MSL
hPa
Rain
since 9 am
mm
Dir
 
Spd
km/h
Gust
km/h
Spd
kts
Gust
kts
17/11:30pm 16.8 12.7 2.0 37 6.6 WSW 13 15 7 8 1015.6 1015.4 0.0
17/11:00pm 17.6 13.5 2.0 35 7.0 WSW 13 20 7 11 1015.6 1015.4 0.0
17/10:30pm 18.1 13.6 2.4 35 7.2 W 15 24 8 13 1015.2 1015.0 0.0
17/10:00pm 17.8 13.7 2.5 36 7.0 W 13 20 7 11 1014.9 1014.7 0.0
17/09:30pm 18.4 14.4 2.7 35 7.2 W 13 19 7 10 1014.7 1014.5 0.0
17/09:00pm 18.0 14.1 3.5 38 6.8 WNW 13 20 7 11 1014.3 1014.1 0.0
17/08:30pm 17.8 14.7 5.7 45 5.9 WNW 11 17 6 9 1013.9 1013.7 0.0
17/08:00pm 15.8 14.1 9.7 67 3.2 NNW 9 15 5 8 1013.6 1013.4 0.0
17/07:30pm 15.9 14.6 11.1 73 2.6 N 9 13 5 7 1013.0 1012.9 0.0
17/07:00pm 16.9 15.1 12.0 73 2.7 N 13 19 7 10 1012.6 1012.5 0.0
17/06:30pm 18.0 16.2 12.0 68 3.3 N 13 19 7 10 1012.3 1012.2 0.0
17/06:00pm 18.2 15.8 11.5 65 3.7 NNE 15 20 8 11 1012.0 1011.9 0.0
17/05:30pm 18.8 16.3 11.1 61 4.2 NNE 15 20 8 11 1011.6 1011.5 0.0
17/05:00pm 20.4 17.8 9.3 49 5.9 NNE 13 20 7 11 1011.2 1011.1 0.0
17/04:30pm 21.5 17.6 8.7 44 6.8 NNE 19 28 10 15 1010.8 1010.7 0.0
17/04:00pm 24.5 22.3 9.3 38 8.3 N 11 24 6 13 1010.4 1010.3 0.0
17/03:30pm 26.9 23.7 6.9 28 10.6 N 13 22 7 12 1010.2 1010.1 0.0
17/03:00pm 26.3 22.3 4.7 25 11.0 WNW 15 30 8 16 1010.2 1010.1 0.0
17/02:30pm 26.8 24.6 7.8 30 10.2 NNW 9 19 5 10 1010.2 1010.1 0.0
17/02:00pm 23.0 21.4 10.1 44 7.1 SE 9 19 5 10 1010.6 1010.5 0.0
17/01:30pm 23.4 21.6 9.4 41 7.6 ESE 9 19 5 10 1011.1 1011.0 0.0
17/01:00pm 26.1 24.1 8.6 33 9.5 N 9 19 5 10 1011.5 1011.4 0.0
17/12:30pm 26.7 23.1 6.7 28 10.5 NW 15 22 8 12 1011.7 1011.6 0.0
17/12:00pm 26.8 23.9 8.3 31 10.0 N 13 28 7 15 1012.2 1012.1 0.0
17/11:30am 25.3 20.9 6.5 30 9.8 NNW 19 30 10 16 1013.0 1012.9 0.0
17/11:00am 25.1 22.4 7.3 32 9.4 WNW 11 20 6 11 1013.6 1013.4 0.0
17/10:30am 24.9 20.9 6.6 31 9.5 NW 17 26 9 14 1014.0 1013.8 0.0
17/10:00am 23.9 21.0 6.7 33 8.9 WNW 11 20 6 11 1014.3 1014.1 0.0
17/09:30am 22.0 18.0 5.0 33 8.4 W 15 22 8 12 1014.7 1014.5 0.0
17/09:00am 22.4 19.9 6.6 36 8.1 NW 9 13 5 7 1014.9 1014.7 -
17/08:30am 21.3 18.8 6.4 38 7.6 WNW 9 13 5 7 1014.7 1014.5 -
17/08:00am 20.0 17.2 7.1 43 6.6 W 11 15 6 8 1014.8 1014.6 -

Other Formats:

Comma delimited format used in spreadsheet applications
http://www.bom.gov.au/fwo/IDN60801/IDN60801.94598.axf

JavaScript Object Notation format (JSON) in row-major order
http://www.bom.gov.au/fwo/IDN60801/IDN60801.94598.json